Time;durP1;ratioP1;P1;durP2;ratioP2;P2;SDS_P1;SDS_P2;PMS_P1;PMS_P2;Temp;Humidity;BMP_temperature;BMP_pressure;BME280_temperature;BME280_humidity;BME280_pressure;Samples;Min_cycle;Max_cycle;Signal;HPM_P1;HPM_P2
2023/02/07 00:01:36;;;;;;;28.30;11.13;;;;;;;;;;5071106;28;20062;-64
2023/02/07 00:04:01;;;;;;;34.85;12.73;;;;;;;;;;5088825;28;20039;-65
2023/02/07 00:06:27;;;;;;;31.27;12.10;;;;;;;;;;5093707;28;20016;-64
2023/02/07 00:08:53;;;;;;;31.63;12.27;;;;;;;;;;5087540;28;20035;-65
2023/02/07 00:11:19;;;;;;;28.20;11.63;;;;;;;;;;5083147;28;20023;-65
2023/02/07 00:13:45;;;;;;;27.67;11.70;;;;;;;;;;5085050;28;20099;-65
2023/02/07 00:16:11;;;;;;;32.75;12.27;;;;;;;;;;5082978;28;20113;-64
2023/02/07 00:18:36;;;;;;;29.35;12.20;;;;;;;;;;5085040;28;20056;-66
2023/02/07 00:21:05;;;;;;;28.63;12.30;;;;;;;;;;5090136;28;20048;-66
2023/02/07 00:23:31;;;;;;;26.95;11.52;;;;;;;;;;5071038;28;20029;-66
2023/02/07 00:25:56;;;;;;;27.93;11.60;;;;;;;;;;5078493;28;20832;-64
2023/02/07 00:28:21;;;;;;;30.87;12.27;;;;;;;;;;5087688;28;21029;-65
2023/02/07 00:30:46;;;;;;;25.13;10.93;;;;;;;;;;5088573;28;20012;-64
2023/02/07 00:33:11;;;;;;;28.67;11.70;;;;;;;;;;5090799;28;20339;-66
2023/02/07 00:35:37;;;;;;;37.40;13.40;;;;;;;;;;5084996;28;20465;-65
2023/02/07 00:38:02;;;;;;;28.83;12.20;;;;;;;;;;5087294;28;20111;-64
2023/02/07 00:40:27;;;;;;;31.13;12.38;;;;;;;;;;5090716;28;20019;-64
2023/02/07 00:42:52;;;;;;;28.38;11.98;;;;;;;;;;5073630;28;20122;-65
2023/02/07 00:45:17;;;;;;;28.63;12.05;;;;;;;;;;5070607;28;20036;-63
2023/02/07 00:47:42;;;;;;;30.73;12.32;;;;;;;;;;5070494;28;20428;-66
2023/02/07 00:50:08;;;;;;;29.60;11.87;;;;;;;;;;5070685;28;20055;-66
2023/02/07 00:52:33;;;;;;;31.90;12.90;;;;;;;;;;5080820;28;20024;-65
2023/02/07 00:54:58;;;;;;;30.20;11.73;;;;;;;;;;5098774;28;20024;-67
2023/02/07 00:57:23;;;;;;;33.80;12.68;;;;;;;;;;5097830;28;20032;-66
2023/02/07 00:59:48;;;;;;;31.38;12.45;;;;;;;;;;5073968;28;20024;-65
2023/02/07 01:02:13;;;;;;;31.73;12.03;;;;;;;;;;5070465;28;20361;-66
2023/02/07 01:04:38;;;;;;;28.95;11.95;;;;;;;;;;5070563;28;20026;-65
2023/02/07 01:07:04;;;;;;;28.02;11.88;;;;;;;;;;5070040;28;20056;-66
2023/02/07 01:09:29;;;;;;;28.27;10.90;;;;;;;;;;5075668;28;20619;-64
2023/02/07 01:11:54;;;;;;;28.42;11.88;;;;;;;;;;5091100;28;20077;-65
2023/02/07 01:14:19;;;;;;;30.55;11.52;;;;;;;;;;5090616;28;20020;-63
2023/02/07 01:16:44;;;;;;;29.73;11.63;;;;;;;;;;5073284;28;20025;-64
2023/02/07 01:19:10;;;;;;;27.00;11.30;;;;;;;;;;5070180;28;20458;-64
2023/02/07 01:21:35;;;;;;;25.98;10.75;;;;;;;;;;5069336;28;20135;-66
2023/02/07 01:24:00;;;;;;;25.57;10.67;;;;;;;;;;5073921;28;20066;-65
2023/02/07 01:26:26;;;;;;;26.73;10.35;;;;;;;;;;5088774;28;20454;-66
2023/02/07 01:28:53;;;;;;;27.13;10.23;;;;;;;;;;5082110;28;20032;-65
2023/02/07 01:31:20;;;;;;;;;;;;;;;;;;5078086;28;20028;-65
2023/02/07 01:33:45;;;;;;;24.50;9.40;;;;;;;;;;5080400;28;19912;-65
2023/02/07 01:36:12;;;;;;;23.13;9.93;;;;;;;;;;5085598;28;20020;-66
2023/02/07 01:38:37;;;;;;;25.90;10.43;;;;;;;;;;5083549;28;20104;-64
2023/02/07 01:41:03;;;;;;;24.90;10.27;;;;;;;;;;5072508;28;20504;-65
2023/02/07 01:43:28;;;;;;;26.75;10.73;;;;;;;;;;5078739;28;20469;-64
2023/02/07 01:45:53;;;;;;;28.40;10.60;;;;;;;;;;5071068;28;20034;-65
2023/02/07 01:48:22;;;;;;;25.77;10.80;;;;;;;;;;5069534;28;20036;-64
2023/02/07 01:50:49;;;;;;;25.70;10.35;;;;;;;;;;5080847;28;20029;-64
2023/02/07 01:53:15;;;;;;;;;;;;;;;;;;5070382;28;20476;-64
2023/02/07 01:55:41;;;;;;;24.90;9.80;;;;;;;;;;5080302;28;19927;-64
2023/02/07 01:58:06;;;;;;;27.15;10.00;;;;;;;;;;5079993;28;20070;-65
2023/02/07 02:00:32;;;;;;;26.05;10.27;;;;;;;;;;5087043;28;20034;-64
2023/02/07 02:02:57;;;;;;;25.33;10.13;;;;;;;;;;5076823;28;20107;-63
2023/02/07 02:05:22;;;;;;;24.60;10.07;;;;;;;;;;5069623;28;20561;-63
2023/02/07 02:07:48;;;;;;;22.83;9.75;;;;;;;;;;5085137;28;20032;-64
2023/02/07 02:10:14;;;;;;;24.42;10.00;;;;;;;;;;5079398;28;20040;-64
2023/02/07 02:12:39;;;;;;;29.67;10.73;;;;;;;;;;5071326;28;20024;-64
2023/02/07 02:15:13;;;;;;;27.02;10.18;;;;;;;;;;5070866;28;20040;-64
2023/02/07 02:17:45;;;;;;;26.30;9.98;;;;;;;;;;5074121;28;20040;-66
2023/02/07 02:20:10;;;;;;;27.50;10.82;;;;;;;;;;5082546;28;20039;-66
2023/02/07 02:22:52;;;;;;;25.55;9.77;;;;;;;;;;5072597;28;20024;-64
2023/02/07 02:25:36;;;;;;;24.63;10.40;;;;;;;;;;5076968;28;20020;-65
2023/02/07 02:28:04;;;;;;;27.08;10.23;;;;;;;;;;5087499;28;20032;-66
2023/02/07 02:30:34;;;;;;;25.23;9.82;;;;;;;;;;5077711;28;20509;-65
2023/02/07 02:33:11;;;;;;;25.13;10.57;;;;;;;;;;5072379;28;20370;-65
2023/02/07 02:35:54;;;;;;;24.35;9.50;;;;;;;;;;5080424;28;20599;-65
2023/02/07 02:38:35;;;;;;;24.13;9.95;;;;;;;;;;5082071;28;20093;-66
2023/02/07 02:41:20;;;;;;;23.92;10.40;;;;;;;;;;5080377;28;20020;-66
2023/02/07 02:43:49;;;;;;;24.27;9.95;;;;;;;;;;5086049;28;20123;-65
2023/02/07 02:46:20;;;;;;;24.02;10.18;;;;;;;;;;5083215;28;20062;-68
2023/02/07 02:48:46;;;;;;;23.17;9.45;;;;;;;;;;5083552;28;20068;-65
2023/02/07 02:51:11;;;;;;;26.23;10.90;;;;;;;;;;5077057;28;20076;-65
2023/02/07 02:53:36;;;;;;;21.80;8.97;;;;;;;;;;5071985;28;20028;-64
2023/02/07 02:56:21;;;;;;;23.97;10.03;;;;;;;;;;5076825;28;20020;-65
2023/02/07 02:59:07;;;;;;;23.85;9.55;;;;;;;;;;5087143;28;20032;-64
2023/02/07 03:01:47;;;;;;;25.48;9.85;;;;;;;;;;5079350;28;20050;-65
2023/02/07 03:04:31;;;;;;;28.35;10.88;;;;;;;;;;5076701;28;20025;-65
2023/02/07 03:07:15;;;;;;;27.13;10.05;;;;;;;;;;5073638;28;20551;-66
2023/02/07 03:09:46;;;;;;;25.73;10.25;;;;;;;;;;5075339;28;20040;-65
2023/02/07 03:12:20;;;;;;;28.30;10.27;;;;;;;;;;5086470;28;20020;-65
2023/02/07 03:14:45;;;;;;;28.13;10.93;;;;;;;;;;5086363;28;20035;-65
2023/02/07 03:17:31;;;;;;;30.50;11.05;;;;;;;;;;5072120;28;20024;-67
2023/02/07 03:20:02;;;;;;;25.83;10.13;;;;;;;;;;5087662;28;20644;-65
2023/02/07 03:22:28;;;;;;;29.63;11.93;;;;;;;;;;5071797;28;20029;-65
2023/02/07 03:24:55;;;;;;;27.90;11.60;;;;;;;;;;5080226;28;20027;-64
2023/02/07 03:27:21;;;;;;;33.25;12.25;;;;;;;;;;5092022;28;20056;-64
2023/02/07 03:29:49;;;;;;;35.05;12.38;;;;;;;;;;5081662;28;20059;-66
2023/02/07 03:32:15;;;;;;;33.05;11.05;;;;;;;;;;5089416;28;20027;-67
2023/02/07 03:34:51;;;;;;;30.95;11.45;;;;;;;;;;5091942;28;20024;-66
2023/02/07 03:37:21;;;;;;;30.00;10.88;;;;;;;;;;5091898;28;20031;-65
2023/02/07 03:39:47;;;;;;;28.08;10.75;;;;;;;;;;5091255;28;20490;-65
2023/02/07 03:42:20;;;;;;;32.45;11.07;;;;;;;;;;5092080;28;20024;-65
2023/02/07 03:44:46;;;;;;;32.10;11.73;;;;;;;;;;5088977;28;20170;-65
2023/02/07 03:47:11;;;;;;;29.13;10.63;;;;;;;;;;5088259;28;20060;-64
2023/02/07 03:49:36;;;;;;;28.23;10.68;;;;;;;;;;5088726;28;20028;-65
2023/02/07 03:52:01;;;;;;;32.42;11.82;;;;;;;;;;5092165;28;20024;-65
2023/02/07 03:54:27;;;;;;;31.80;11.40;;;;;;;;;;5088734;28;20120;-65
2023/02/07 03:56:52;;;;;;;27.58;10.63;;;;;;;;;;5091391;28;20024;-65
2023/02/07 03:59:17;;;;;;;26.98;10.80;;;;;;;;;;5091009;28;20027;-65
2023/02/07 04:01:42;;;;;;;30.67;10.57;;;;;;;;;;5084545;28;20108;-65
2023/02/07 04:04:08;;;;;;;34.13;11.00;;;;;;;;;;5087040;28;20172;-64
2023/02/07 04:06:33;;;;;;;29.55;10.95;;;;;;;;;;5088854;28;20022;-64
2023/02/07 04:08:58;;;;;;;26.10;10.50;;;;;;;;;;5091740;28;20024;-65
2023/02/07 04:11:24;;;;;;;29.93;11.40;;;;;;;;;;5091824;28;20073;-66
2023/02/07 04:13:49;;;;;;;24.20;9.70;;;;;;;;;;5092560;28;20118;-65
2023/02/07 04:16:14;;;;;;;28.70;10.47;;;;;;;;;;5092990;28;20019;-66
2023/02/07 04:18:39;;;;;;;27.13;11.17;;;;;;;;;;5088119;28;20955;-65
2023/02/07 04:21:05;;;;;;;27.30;9.98;;;;;;;;;;5084217;28;20036;-65
2023/02/07 04:23:31;;;;;;;29.33;10.70;;;;;;;;;;5084944;28;20400;-65
2023/02/07 04:25:56;;;;;;;26.85;10.73;;;;;;;;;;5085233;28;20420;-64
2023/02/07 04:28:21;;;;;;;32.47;10.60;;;;;;;;;;5092653;28;20028;-66
2023/02/07 04:30:46;;;;;;;31.23;11.83;;;;;;;;;;5085937;28;20027;-65
2023/02/07 04:33:12;;;;;;;30.00;10.60;;;;;;;;;;5089898;28;20113;-67
2023/02/07 04:35:37;;;;;;;30.55;11.52;;;;;;;;;;5082719;28;20028;-67
2023/02/07 04:38:02;;;;;;;35.78;11.80;;;;;;;;;;5090825;28;20056;-66
2023/02/07 04:40:27;;;;;;;32.38;10.90;;;;;;;;;;5075903;28;20020;-66
2023/02/07 04:42:52;;;;;;;26.13;10.68;;;;;;;;;;5069495;28;20685;-67
2023/02/07 04:45:18;;;;;;;33.53;11.40;;;;;;;;;;5070518;28;20035;-67
2023/02/07 04:47:43;;;;;;;28.63;10.38;;;;;;;;;;5089487;28;20035;-66
2023/02/07 04:50:08;;;;;;;31.10;11.60;;;;;;;;;;5107206;28;20425;-65
2023/02/07 04:52:33;;;;;;;32.93;11.27;;;;;;;;;;5093144;28;20031;-66
2023/02/07 04:54:58;;;;;;;27.77;10.47;;;;;;;;;;5091241;28;20027;-66
2023/02/07 04:57:23;;;;;;;29.63;11.17;;;;;;;;;;5078317;28;20416;-65
2023/02/07 04:59:48;;;;;;;26.00;9.83;;;;;;;;;;5091720;28;20099;-65
2023/02/07 05:02:14;;;;;;;23.65;9.27;;;;;;;;;;5091202;28;20032;-65
2023/02/07 05:04:39;;;;;;;32.15;10.10;;;;;;;;;;5091227;28;20016;-64
2023/02/07 05:07:04;;;;;;;27.63;9.82;;;;;;;;;;5090942;28;20036;-66
2023/02/07 05:09:29;;;;;;;25.88;9.45;;;;;;;;;;5085672;28;20428;-66
2023/02/07 05:11:54;;;;;;;24.60;9.90;;;;;;;;;;5085738;28;20047;-65
2023/02/07 05:14:19;;;;;;;23.77;9.50;;;;;;;;;;5090344;28;20384;-65
2023/02/07 05:16:44;;;;;;;22.42;9.23;;;;;;;;;;5087463;28;20020;-66
2023/02/07 05:19:10;;;;;;;34.97;9.05;;;;;;;;;;5083034;28;20069;-66
2023/02/07 05:21:35;;;;;;;25.10;9.60;;;;;;;;;;5086149;28;20073;-66
2023/02/07 05:24:00;;;;;;;23.88;8.75;;;;;;;;;;5075418;28;20020;-63
2023/02/07 05:26:26;;;;;;;21.50;8.88;;;;;;;;;;5081393;28;20015;-64
2023/02/07 05:28:51;;;;;;;18.92;8.73;;;;;;;;;;5085111;28;20136;-63
2023/02/07 05:31:16;;;;;;;29.50;10.90;;;;;;;;;;5067493;28;20956;-65
2023/02/07 05:33:41;;;;;;;22.75;9.68;;;;;;;;;;5077568;28;20036;-64
2023/02/07 05:36:06;;;;;;;28.30;11.52;;;;;;;;;;5094426;28;20034;-66
2023/02/07 05:38:32;;;;;;;27.90;9.52;;;;;;;;;;5088499;28;20621;-64
2023/02/07 05:40:57;;;;;;;23.17;9.17;;;;;;;;;;5066917;28;20482;-66
2023/02/07 05:43:22;;;;;;;24.00;9.60;;;;;;;;;;5074241;28;20458;-65
2023/02/07 05:45:47;;;;;;;22.03;8.70;;;;;;;;;;5073630;28;20036;-65
2023/02/07 05:48:13;;;;;;;20.65;8.45;;;;;;;;;;5076453;28;20033;-65
2023/02/07 05:50:38;;;;;;;24.15;9.20;;;;;;;;;;5077825;28;20017;-66
2023/02/07 05:53:03;;;;;;;22.23;9.03;;;;;;;;;;5067917;28;20028;-64
2023/02/07 05:55:28;;;;;;;25.80;9.88;;;;;;;;;;5072403;28;20036;-65
2023/02/07 05:57:54;;;;;;;25.13;8.93;;;;;;;;;;5074061;28;20124;-67
2023/02/07 06:00:19;;;;;;;20.33;8.43;;;;;;;;;;5073434;28;20040;-66
2023/02/07 06:02:44;;;;;;;19.17;7.55;;;;;;;;;;5076323;28;20035;-66
2023/02/07 06:05:11;;;;;;;27.67;9.50;;;;;;;;;;5090201;28;20035;-66
2023/02/07 06:07:36;;;;;;;23.33;8.88;;;;;;;;;;5091388;28;20032;-65
2023/02/07 06:10:02;;;;;;;26.67;10.55;;;;;;;;;;5101267;28;20095;-65
2023/02/07 06:12:28;;;;;;;24.90;9.95;;;;;;;;;;5089461;28;20495;-65
2023/02/07 06:14:53;;;;;;;23.97;9.90;;;;;;;;;;5089589;28;20080;-66
2023/02/07 06:17:18;;;;;;;24.73;9.77;;;;;;;;;;5098046;28;20044;-66
2023/02/07 06:19:43;;;;;;;27.17;10.80;;;;;;;;;;5101212;28;20024;-66
2023/02/07 06:22:08;;;;;;;27.10;10.73;;;;;;;;;;5075818;28;20478;-66
2023/02/07 06:24:34;;;;;;;23.88;9.65;;;;;;;;;;5080305;28;20020;-67
2023/02/07 06:26:59;;;;;;;24.30;10.03;;;;;;;;;;5085218;28;20063;-65
2023/02/07 06:29:24;;;;;;;23.10;9.00;;;;;;;;;;5081751;28;20119;-65
2023/02/07 06:31:49;;;;;;;26.37;10.10;;;;;;;;;;5093570;28;20026;-64
2023/02/07 06:34:14;;;;;;;25.55;9.15;;;;;;;;;;5077750;28;20029;-64
2023/02/07 06:36:39;;;;;;;23.17;9.20;;;;;;;;;;5074246;28;20164;-65
2023/02/07 06:39:04;;;;;;;24.33;9.23;;;;;;;;;;5073477;28;20028;-65
2023/02/07 06:41:30;;;;;;;26.83;9.50;;;;;;;;;;5072729;28;20125;-65
2023/02/07 06:43:55;;;;;;;25.53;9.70;;;;;;;;;;5073185;28;20028;-65
2023/02/07 06:46:20;;;;;;;24.17;9.30;;;;;;;;;;5085571;28;20115;-65
2023/02/07 06:48:45;;;;;;;22.10;9.05;;;;;;;;;;5094899;28;20028;-66
2023/02/07 06:51:11;;;;;;;24.85;9.38;;;;;;;;;;5098075;28;20031;-66
2023/02/07 06:53:36;;;;;;;19.87;8.70;;;;;;;;;;5094540;28;20529;-65
2023/02/07 06:56:01;;;;;;;24.67;9.15;;;;;;;;;;5093385;28;20020;-66
2023/02/07 06:58:26;;;;;;;22.27;8.70;;;;;;;;;;5093544;28;20069;-65
2023/02/07 07:00:51;;;;;;;22.65;8.73;;;;;;;;;;5090069;28;20159;-65
2023/02/07 07:03:16;;;;;;;23.70;8.60;;;;;;;;;;5093742;28;20047;-64
2023/02/07 07:05:42;;;;;;;22.90;8.87;;;;;;;;;;5092283;28;20020;-65
2023/02/07 07:08:08;;;;;;;30.63;11.02;;;;;;;;;;5093313;28;20028;-65
2023/02/07 07:10:33;;;;;;;30.75;10.43;;;;;;;;;;5092668;28;20397;-65
2023/02/07 07:12:58;;;;;;;27.70;9.27;;;;;;;;;;5076669;28;20029;-65
2023/02/07 07:15:23;;;;;;;31.20;10.30;;;;;;;;;;5085054;28;20031;-65
2023/02/07 07:17:48;;;;;;;26.92;9.50;;;;;;;;;;5082211;28;20036;-66
2023/02/07 07:20:14;;;;;;;23.33;9.03;;;;;;;;;;5072932;28;20044;-64
2023/02/07 07:22:39;;;;;;;27.38;9.07;;;;;;;;;;5091547;28;20024;-65
2023/02/07 07:25:05;;;;;;;29.05;9.57;;;;;;;;;;5079777;28;20031;-66
2023/02/07 07:27:30;;;;;;;24.50;8.25;;;;;;;;;;5092904;28;20024;-65
2023/02/07 07:29:55;;;;;;;22.70;8.77;;;;;;;;;;5089483;28;20023;-64
2023/02/07 07:32:20;;;;;;;23.33;9.68;;;;;;;;;;5083122;28;20063;-65
2023/02/07 07:34:48;;;;;;;21.27;8.23;;;;;;;;;;5072731;28;20067;-67
2023/02/07 07:37:13;;;;;;;21.90;8.20;;;;;;;;;;5076841;28;20052;-64
2023/02/07 07:39:38;;;;;;;22.13;8.38;;;;;;;;;;5078418;28;20523;-65
2023/02/07 07:42:04;;;;;;;25.02;9.40;;;;;;;;;;5086294;28;20073;-65
2023/02/07 07:44:29;;;;;;;25.60;9.50;;;;;;;;;;5087795;28;20016;-65
2023/02/07 07:46:54;;;;;;;25.30;9.40;;;;;;;;;;5080796;28;20385;-64
2023/02/07 07:49:19;;;;;;;22.80;8.30;;;;;;;;;;5087667;28;20024;-66
2023/02/07 07:51:45;;;;;;;22.25;8.48;;;;;;;;;;5088751;28;20043;-63
2023/02/07 07:54:10;;;;;;;20.45;8.30;;;;;;;;;;5071200;28;20052;-64
2023/02/07 07:56:35;;;;;;;22.92;9.02;;;;;;;;;;5079765;28;20476;-65
2023/02/07 07:59:01;;;;;;;24.27;8.65;;;;;;;;;;5084752;28;20059;-64
2023/02/07 08:01:26;;;;;;;23.77;9.20;;;;;;;;;;5072610;28;20032;-64
2023/02/07 08:03:51;;;;;;;21.65;8.93;;;;;;;;;;5071337;28;20021;-64
2023/02/07 08:06:16;;;;;;;26.77;9.63;;;;;;;;;;5079895;28;21777;-65
2023/02/07 08:08:42;;;;;;;23.58;9.80;;;;;;;;;;5091599;28;20602;-64
2023/02/07 08:11:08;;;;;;;23.03;9.30;;;;;;;;;;5091068;28;20031;-63
2023/02/07 08:13:33;;;;;;;30.42;10.82;;;;;;;;;;5092391;28;20023;-65
2023/02/07 08:15:58;;;;;;;29.88;10.65;;;;;;;;;;5091946;28;20377;-65
2023/02/07 08:18:23;;;;;;;26.65;10.93;;;;;;;;;;5091515;28;20020;-65
2023/02/07 08:20:49;;;;;;;30.73;11.67;;;;;;;;;;5088090;28;20530;-65
2023/02/07 08:23:14;;;;;;;29.42;11.05;;;;;;;;;;5083337;28;20036;-66
2023/02/07 08:25:40;;;;;;;28.33;10.30;;;;;;;;;;5084711;28;20027;-65
2023/02/07 08:28:05;;;;;;;24.25;9.98;;;;;;;;;;5074405;28;20028;-64
2023/02/07 08:30:30;;;;;;;27.43;11.03;;;;;;;;;;5091369;28;20016;-64
2023/02/07 08:32:56;;;;;;;29.13;10.60;;;;;;;;;;5092720;28;20106;-65
2023/02/07 08:35:21;;;;;;;26.08;10.30;;;;;;;;;;5088360;28;20012;-65
2023/02/07 08:37:46;;;;;;;28.00;10.37;;;;;;;;;;5086185;28;20111;-65
2023/02/07 08:40:11;;;;;;;28.77;11.25;;;;;;;;;;5083652;28;20055;-65
2023/02/07 08:42:36;;;;;;;31.97;11.20;;;;;;;;;;5074384;28;20024;-65
2023/02/07 08:45:03;;;;;;;29.30;11.20;;;;;;;;;;5072163;28;20462;-65
2023/02/07 08:47:28;;;;;;;30.00;11.27;;;;;;;;;;5070852;28;20029;-66
2023/02/07 08:49:53;;;;;;;24.85;10.30;;;;;;;;;;5071435;28;20048;-64
2023/02/07 08:52:18;;;;;;;27.90;10.50;;;;;;;;;;5074633;28;20020;-65
2023/02/07 08:54:44;;;;;;;29.73;11.30;;;;;;;;;;5084914;28;20020;-65
2023/02/07 08:57:09;;;;;;;31.92;12.25;;;;;;;;;;5086895;28;20373;-66
2023/02/07 08:59:34;;;;;;;29.75;10.85;;;;;;;;;;5089465;28;20028;-64
2023/02/07 09:01:59;;;;;;;32.50;11.70;;;;;;;;;;5076309;28;20016;-64
2023/02/07 09:04:25;;;;;;;29.58;11.38;;;;;;;;;;5070312;28;20025;-65
2023/02/07 09:06:50;;;;;;;29.70;10.70;;;;;;;;;;5077036;28;20517;-65
2023/02/07 09:09:16;;;;;;;30.10;11.53;;;;;;;;;;5090517;28;20127;-63
2023/02/07 09:11:42;;;;;;;27.50;11.65;;;;;;;;;;5090048;28;20027;-64
2023/02/07 09:14:07;;;;;;;25.50;10.10;;;;;;;;;;5090688;28;20091;-65
2023/02/07 09:16:33;;;;;;;31.20;12.40;;;;;;;;;;5090668;28;20069;-64
2023/02/07 09:18:58;;;;;;;32.55;12.55;;;;;;;;;;5090208;28;20024;-65
2023/02/07 09:21:23;;;;;;;29.48;11.70;;;;;;;;;;5084280;28;23159;-65
2023/02/07 09:23:48;;;;;;;29.10;12.67;;;;;;;;;;5084298;28;20039;-67
2023/02/07 09:26:18;;;;;;;30.52;11.63;;;;;;;;;;5091395;28;20020;-65
2023/02/07 09:28:43;;;;;;;27.35;11.55;;;;;;;;;;5073847;28;20039;-65
2023/02/07 09:31:10;;;;;;;34.75;12.90;;;;;;;;;;5073783;28;20606;-65
2023/02/07 09:33:35;;;;;;;29.60;11.02;;;;;;;;;;5074448;28;20035;-65
2023/02/07 09:36:00;;;;;;;31.42;12.10;;;;;;;;;;5081975;28;20094;-65
2023/02/07 09:38:26;;;;;;;28.70;11.27;;;;;;;;;;5094457;28;20414;-63
2023/02/07 09:40:51;;;;;;;29.37;10.63;;;;;;;;;;5093566;28;20031;-65
2023/02/07 09:43:28;;;;;;;27.88;12.40;;;;;;;;;;5094318;28;20070;-65
2023/02/07 09:45:56;;;;;;;27.05;11.82;;;;;;;;;;5094034;28;20397;-65
2023/02/07 09:48:26;;;;;;;28.95;11.27;;;;;;;;;;5094150;28;20043;-65
2023/02/07 09:50:53;;;;;;;26.98;10.80;;;;;;;;;;5090625;28;20098;-64
2023/02/07 09:53:21;;;;;;;28.10;11.52;;;;;;;;;;5092430;28;20111;-64
2023/02/07 09:55:52;;;;;;;27.23;10.57;;;;;;;;;;5074777;28;20032;-63
2023/02/07 09:58:21;;;;;;;28.77;11.15;;;;;;;;;;5073822;28;20027;-64
2023/02/07 10:00:52;;;;;;;28.33;10.77;;;;;;;;;;5071655;28;20506;-64
2023/02/07 10:03:19;;;;;;;27.63;11.57;;;;;;;;;;5073713;28;20016;-65
2023/02/07 10:05:50;;;;;;;28.85;11.18;;;;;;;;;;5078875;28;20747;-64
2023/02/07 10:08:17;;;;;;;29.45;11.23;;;;;;;;;;5093422;28;20040;-66
2023/02/07 10:10:44;;;;;;;27.90;11.23;;;;;;;;;;5092993;28;20019;-65
2023/02/07 10:13:34;;;;;;;28.38;11.57;;;;;;;;;;5094431;28;20077;-66
2023/02/07 10:16:09;;;;;;;26.98;11.05;;;;;;;;;;5093741;28;20031;-65
2023/02/07 10:18:41;;;;;;;27.90;11.75;;;;;;;;;;5094393;28;20042;-65
2023/02/07 10:21:25;;;;;;;23.38;10.50;;;;;;;;;;5093523;28;20032;-66
2023/02/07 10:23:58;;;;;;;26.90;10.75;;;;;;;;;;5089553;28;20031;-67
2023/02/07 10:26:39;;;;;;;25.48;10.63;;;;;;;;;;5093712;28;20101;-65
2023/02/07 10:29:16;;;;;;;27.85;10.52;;;;;;;;;;5093983;28;20031;-65
2023/02/07 10:31:43;;;;;;;24.83;10.13;;;;;;;;;;5092820;28;20019;-67
2023/02/07 10:34:17;;;;;;;26.67;10.90;;;;;;;;;;5093601;28;20399;-66
2023/02/07 10:36:44;;;;;;;25.02;10.60;;;;;;;;;;5091928;28;20016;-65
2023/02/07 10:39:23;;;;;;;25.58;11.05;;;;;;;;;;5093059;28;20024;-67
2023/02/07 10:41:50;;;;;;;24.13;10.55;;;;;;;;;;5093293;28;20103;-67
2023/02/07 10:44:17;;;;;;;25.30;11.60;;;;;;;;;;5094252;28;20020;-66
2023/02/07 10:46:45;;;;;;;27.60;11.65;;;;;;;;;;5093358;28;20070;-66
2023/02/07 10:49:19;;;;;;;25.83;11.68;;;;;;;;;;5094191;28;20032;-64
2023/02/07 10:51:44;;;;;;;25.73;11.55;;;;;;;;;;5094700;28;20027;-64
2023/02/07 10:54:19;;;;;;;27.33;11.13;;;;;;;;;;5093871;28;20089;-66
2023/02/07 10:56:46;;;;;;;26.58;12.20;;;;;;;;;;5095871;28;20522;-65
2023/02/07 10:59:30;;;;;;;25.05;11.50;;;;;;;;;;5095296;28;20027;-69
2023/02/07 11:01:55;;;;;;;28.30;11.73;;;;;;;;;;5093950;28;20099;-66
2023/02/07 11:04:41;;;;;;;29.73;11.63;;;;;;;;;;5093159;28;20100;-65
2023/02/07 11:07:06;;;;;;;27.52;11.75;;;;;;;;;;5092486;28;20036;-66
2023/02/07 11:09:36;;;;;;;29.85;12.05;;;;;;;;;;5090615;28;20034;-65
2023/02/07 11:12:11;;;;;;;27.52;12.25;;;;;;;;;;5092689;28;20016;-66
2023/02/07 11:14:36;;;;;;;26.73;10.90;;;;;;;;;;5073494;28;20515;-67
2023/02/07 11:17:02;;;;;;;24.65;11.10;;;;;;;;;;5072550;28;20099;-67
2023/02/07 11:19:29;;;;;;;28.30;11.77;;;;;;;;;;5071700;28;20020;-66
2023/02/07 11:22:16;;;;;;;24.40;11.60;;;;;;;;;;5072786;28;20097;-65
2023/02/07 11:24:41;;;;;;;24.85;10.30;;;;;;;;;;5080199;28;20032;-66
2023/02/07 11:27:09;;;;;;;27.77;11.00;;;;;;;;;;5083052;28;20028;-68
2023/02/07 11:29:38;;;;;;;27.17;11.75;;;;;;;;;;5091951;28;20408;-67
2023/02/07 11:32:04;;;;;;;25.45;11.75;;;;;;;;;;5092594;28;20043;-65
2023/02/07 11:34:35;;;;;;;27.05;11.60;;;;;;;;;;5092548;28;20020;-65
2023/02/07 11:37:17;;;;;;;26.88;11.43;;;;;;;;;;5100686;28;20020;-68
2023/02/07 11:39:42;;;;;;;24.25;10.93;;;;;;;;;;5092118;28;20020;-67
2023/02/07 11:42:11;;;;;;;28.60;11.38;;;;;;;;;;5085481;28;20021;-66
2023/02/07 11:44:39;;;;;;;24.38;10.65;;;;;;;;;;5092003;28;20028;-68
2023/02/07 11:47:04;;;;;;;24.40;10.65;;;;;;;;;;5091992;28;20020;-66
2023/02/07 11:49:38;;;;;;;27.57;11.47;;;;;;;;;;5091808;28;20024;-68
2023/02/07 11:52:03;;;;;;;26.40;10.82;;;;;;;;;;5091671;28;20539;-66
2023/02/07 11:54:29;;;;;;;23.92;10.02;;;;;;;;;;5092162;28;20024;-68
2023/02/07 11:57:03;;;;;;;22.73;10.55;;;;;;;;;;5091144;28;20028;-66
2023/02/07 11:59:28;;;;;;;26.33;11.05;;;;;;;;;;5082639;28;20024;-70
2023/02/07 12:01:57;;;;;;;24.50;11.10;;;;;;;;;;5075111;28;20381;-66
2023/02/07 12:04:33;;;;;;;27.77;11.93;;;;;;;;;;5084594;28;20051;-67
2023/02/07 12:07:01;;;;;;;22.58;10.52;;;;;;;;;;5091721;28;20369;-68
2023/02/07 12:09:31;;;;;;;24.58;11.35;;;;;;;;;;5090078;28;20032;-66
2023/02/07 12:11:59;;;;;;;23.95;10.70;;;;;;;;;;5091703;28;20035;-66
2023/02/07 12:14:30;;;;;;;24.30;11.18;;;;;;;;;;5091847;28;20365;-66
2023/02/07 12:16:57;;;;;;;26.13;10.68;;;;;;;;;;5089558;28;20020;-66
2023/02/07 12:19:32;;;;;;;26.40;11.30;;;;;;;;;;5091202;28;20038;-66
2023/02/07 12:22:14;;;;;;;27.30;11.25;;;;;;;;;;5091500;28;20020;-65
2023/02/07 12:24:46;;;;;;;26.95;10.43;;;;;;;;;;5091287;28;20024;-66
2023/02/07 12:27:14;;;;;;;23.33;10.80;;;;;;;;;;5091162;28;20032;-66
2023/02/07 12:29:58;;;;;;;22.25;9.80;;;;;;;;;;5088995;28;20101;-68
2023/02/07 12:32:42;;;;;;;24.63;10.95;;;;;;;;;;5089377;28;20053;-67
2023/02/07 12:35:26;;;;;;;26.50;11.05;;;;;;;;;;5091013;28;20411;-68
2023/02/07 12:38:00;;;;;;;20.92;10.10;;;;;;;;;;5091248;28;20042;-68
2023/02/07 12:40:25;;;;;;;26.42;10.80;;;;;;;;;;5090614;28;20112;-67
2023/02/07 12:42:53;;;;;;;22.75;11.27;;;;;;;;;;5091090;28;20495;-66
2023/02/07 12:45:27;;;;;;;25.35;11.05;;;;;;;;;;5090689;28;20478;-66
2023/02/07 12:48:11;;;;;;;25.88;11.68;;;;;;;;;;5081407;28;20031;-65
2023/02/07 12:50:43;;;;;;;23.48;10.70;;;;;;;;;;5083181;28;20023;-69
2023/02/07 12:53:11;;;;;;;24.55;10.57;;;;;;;;;;5090441;28;20027;-68
2023/02/07 12:55:52;;;;;;;25.70;11.57;;;;;;;;;;5091195;28;20023;-66
2023/02/07 12:58:31;;;;;;;27.40;11.18;;;;;;;;;;5080216;28;20086;-70
2023/02/07 13:01:05;;;;;;;24.90;11.27;;;;;;;;;;5068837;28;20024;-66
2023/02/07 13:03:53;;;;;;;23.88;11.05;;;;;;;;;;5074846;28;20035;-65
2023/02/07 13:06:26;;;;;;;25.90;11.25;;;;;;;;;;5078710;28;20035;-66
2023/02/07 13:08:59;;;;;;;26.25;11.15;;;;;;;;;;5084209;28;20571;-67
2023/02/07 13:11:27;;;;;;;26.42;11.77;;;;;;;;;;5090010;28;20020;-67
2023/02/07 13:13:57;;;;;;;26.55;10.88;;;;;;;;;;5091090;28;20107;-67
2023/02/07 13:16:31;;;;;;;27.67;11.55;;;;;;;;;;5090864;28;20108;-67
2023/02/07 13:19:08;;;;;;;25.70;10.70;;;;;;;;;;5091377;28;20028;-65
2023/02/07 13:21:43;;;;;;;26.63;11.57;;;;;;;;;;5084726;28;20028;-66
2023/02/07 13:24:12;;;;;;;26.75;11.38;;;;;;;;;;5090458;28;20031;-66
2023/02/07 13:26:38;;;;;;;24.35;11.50;;;;;;;;;;5090495;28;20039;-68
2023/02/07 13:29:06;;;;;;;23.13;10.60;;;;;;;;;;5090662;28;20020;-68
2023/02/07 13:31:36;;;;;;;24.70;12.32;;;;;;;;;;5090319;28;20416;-66
2023/02/07 13:34:02;;;;;;;24.85;11.73;;;;;;;;;;5089931;28;20016;-67
2023/02/07 13:36:39;;;;;;;24.83;11.73;;;;;;;;;;5088568;28;20027;-67
2023/02/07 13:39:15;;;;;;;25.90;12.30;;;;;;;;;;5094032;28;20032;-66
2023/02/07 13:41:59;;;;;;;27.17;12.32;;;;;;;;;;5087292;28;20012;-65
2023/02/07 13:44:42;;;;;;;28.30;12.48;;;;;;;;;;5089031;28;20027;-68
2023/02/07 13:47:27;;;;;;;27.13;11.80;;;;;;;;;;5091165;28;20032;-67
2023/02/07 13:49:56;;;;;;;24.80;12.70;;;;;;;;;;5086015;28;20050;-66
2023/02/07 13:52:21;;;;;;;27.60;12.57;;;;;;;;;;5089379;28;20559;-68
2023/02/07 13:55:13;;;;;;;25.73;11.93;;;;;;;;;;5090287;28;20028;-66
2023/02/07 14:00:25;;;;;;;24.73;11.98;;;;;;;;;;5088232;28;20023;-68
2023/02/07 14:02:52;;;;;;;27.65;12.48;;;;;;;;;;5086405;28;20020;-67
2023/02/07 14:05:28;;;;;;;28.17;12.90;;;;;;;;;;5090321;28;20383;-67
2023/02/07 14:07:55;;;;;;;28.00;12.23;;;;;;;;;;5090446;28;20104;-67
2023/02/07 14:10:46;;;;;;;24.20;12.05;;;;;;;;;;5089942;28;20476;-69
2023/02/07 14:13:26;;;;;;;23.45;11.25;;;;;;;;;;5088870;28;20032;-67
2023/02/07 14:15:59;;;;;;;26.05;11.48;;;;;;;;;;5088868;28;20108;-68
2023/02/07 14:18:37;;;;;;;26.15;12.38;;;;;;;;;;5093844;28;20112;-67
2023/02/07 14:21:22;;;;;;;24.90;10.95;;;;;;;;;;5093350;28;20553;-68
2023/02/07 14:23:56;;;;;;;23.30;10.63;;;;;;;;;;5092064;28;20090;-69
2023/02/07 14:26:37;;;;;;;23.60;10.30;;;;;;;;;;5086335;28;20024;-68
2023/02/07 14:29:23;;;;;;;28.15;11.65;;;;;;;;;;5085397;28;20385;-68
2023/02/07 14:31:48;;;;;;;22.77;11.23;;;;;;;;;;5075871;28;20058;-71